createdAt,value
2022-11-11T00:01:15.871Z,100943.69
2022-11-11T00:03:44.266Z,100931.56
2022-11-11T00:06:14.183Z,100927.22
2022-11-11T00:08:44.117Z,100932.44
2022-11-11T00:11:14.149Z,100931.56
2022-11-11T00:13:43.863Z,100936.78
2022-11-11T00:16:13.719Z,100924.63
2022-11-11T00:19:00.844Z,100932.44
2022-11-11T00:21:43.240Z,100929.81
2022-11-11T00:24:40.101Z,100931.56
2022-11-11T00:27:09.053Z,100936.75
2022-11-11T00:29:37.662Z,100941.97
2022-11-11T00:32:24.850Z,100933.28
2022-11-11T00:35:11.982Z,100946.28
2022-11-11T00:37:40.783Z,100933.28
2022-11-11T00:40:13.536Z,100941.06
2022-11-11T00:42:42.137Z,100937.63
2022-11-11T00:45:11.865Z,100947.16
2022-11-11T00:47:57.717Z,100935.91
2022-11-11T00:50:45.736Z,100937.63
2022-11-11T00:53:15.404Z,100912.50
2022-11-11T00:55:45.006Z,100909.91
2022-11-11T00:58:13.166Z,100902.97
2022-11-11T01:00:41.273Z,100918.56
2022-11-11T01:03:09.800Z,100916.81
2022-11-11T01:05:38.713Z,100910.75
2022-11-11T01:08:07.021Z,100909.03
2022-11-11T01:10:42.174Z,100919.44
2022-11-11T01:13:22.650Z,100917.69
2022-11-11T01:15:53.133Z,100907.31
2022-11-11T01:18:23.686Z,100897.75
2022-11-11T01:20:59.886Z,100898.63
2022-11-11T01:23:33.059Z,100900.38
2022-11-11T01:26:03.694Z,100905.56
2022-11-11T01:28:33.471Z,100895.16
2022-11-11T01:31:06.114Z,100909.03
2022-11-11T01:33:34.622Z,100907.28
2022-11-11T01:36:08.332Z,100907.31
2022-11-11T01:38:37.154Z,100910.75
2022-11-11T01:41:26.541Z,100920.31
2022-11-11T01:43:56.108Z,100916.84
2022-11-11T01:46:35.899Z,100941.09
2022-11-11T01:49:21.764Z,100929.84
2022-11-11T01:51:56.528Z,100935.03
2022-11-11T01:54:29.641Z,100929.81
2022-11-11T01:57:03.079Z,100928.97
2022-11-11T01:59:33.779Z,100947.16
2022-11-11T02:02:07.402Z,100936.75
2022-11-11T02:04:55.318Z,100931.53
2022-11-11T02:07:24.895Z,100935.00
2022-11-11T02:09:55.313Z,100935.03
2022-11-11T02:12:41.167Z,100942.81
2022-11-11T02:15:11.153Z,100928.94
2022-11-11T02:17:39.523Z,100926.34
2022-11-11T02:20:11.114Z,100936.75
2022-11-11T02:22:47.668Z,100917.69
2022-11-11T02:25:22.032Z,100914.19
2022-11-11T02:27:53.294Z,100913.31
2022-11-11T02:30:22.645Z,100914.19
2022-11-11T02:32:52.573Z,100916.78
2022-11-11T02:35:22.939Z,100915.94
2022-11-11T02:37:53.737Z,100899.50
2022-11-11T02:40:28.925Z,100913.31
2022-11-11T02:42:56.278Z,100908.13
2022-11-11T02:45:24.616Z,100901.19
2022-11-11T02:47:52.948Z,100918.50
2022-11-11T02:50:21.265Z,100903.78
2022-11-11T02:52:50.012Z,100910.72
2022-11-11T02:55:18.441Z,100902.91
2022-11-11T02:57:48.298Z,100905.53
2022-11-11T03:00:18.400Z,100909.03
2022-11-11T03:02:46.747Z,100907.31
2022-11-11T03:05:15.259Z,100897.75
2022-11-11T03:07:43.960Z,100902.94
2022-11-11T03:10:12.443Z,100907.28
2022-11-11T03:12:41.376Z,100897.75
2022-11-11T03:15:12.243Z,100896.84
2022-11-11T03:17:42.450Z,100889.03
2022-11-11T03:20:28.791Z,100885.59
2022-11-11T03:23:04.610Z,100893.38
2022-11-11T03:25:38.372Z,100880.38
2022-11-11T03:28:06.799Z,100882.09
2022-11-11T03:30:36.821Z,100881.22
2022-11-11T03:33:05.164Z,100889.88
2022-11-11T03:35:34.077Z,100888.19
2022-11-11T03:38:18.647Z,100902.03
2022-11-11T03:40:48.370Z,100905.50
2022-11-11T03:43:18.481Z,100905.53
2022-11-11T03:45:48.333Z,100907.28
2022-11-11T03:48:16.732Z,100899.50
2022-11-11T03:50:47.390Z,100927.22
2022-11-11T03:53:16.400Z,100901.22
2022-11-11T03:55:45.237Z,100905.56
2022-11-11T03:58:13.917Z,100901.22
2022-11-11T04:00:42.873Z,100904.72
2022-11-11T04:03:33.314Z,100914.22
2022-11-11T04:06:18.800Z,100913.34
2022-11-11T04:09:06.743Z,100921.16
2022-11-11T04:11:38.500Z,100912.50
2022-11-11T04:14:23.258Z,100919.44
2022-11-11T04:16:51.846Z,100912.50
2022-11-11T04:19:39.244Z,100913.34
2022-11-11T04:22:07.431Z,100932.41
2022-11-11T04:24:53.077Z,100924.59
2022-11-11T04:27:21.662Z,100932.41
2022-11-11T04:29:48.764Z,100929.78
2022-11-11T04:32:39.354Z,100941.03
2022-11-11T04:35:10.707Z,100924.63
2022-11-11T04:37:50.099Z,100935.88
2022-11-11T04:40:36.660Z,100948.88
2022-11-11T04:43:04.793Z,100922.88
2022-11-11T04:45:32.173Z,100924.59
2022-11-11T04:48:02.265Z,100925.50
2022-11-11T04:50:33.746Z,100933.28
2022-11-11T04:53:02.849Z,100926.34
2022-11-11T04:55:48.441Z,100929.81
2022-11-11T04:58:18.972Z,100935.88
2022-11-11T05:00:47.234Z,100928.97
2022-11-11T05:03:19.268Z,100936.75
2022-11-11T05:06:08.051Z,100934.16
2022-11-11T05:08:55.439Z,100925.47
2022-11-11T05:11:25.009Z,100931.53
2022-11-11T05:14:10.974Z,100929.81
2022-11-11T05:16:59.961Z,100941.06
2022-11-11T05:19:45.431Z,100927.22
2022-11-11T05:22:18.119Z,100935.00
2022-11-11T05:25:03.560Z,100943.69
2022-11-11T05:27:31.861Z,100938.50
2022-11-11T05:30:00.365Z,100918.56
2022-11-11T05:32:28.544Z,100942.81
2022-11-11T05:34:56.918Z,100940.22
2022-11-11T05:37:26.426Z,100947.19
2022-11-11T05:39:54.598Z,100934.16
2022-11-11T05:42:22.810Z,100937.63
2022-11-11T05:44:51.105Z,100954.94
2022-11-11T05:47:19.486Z,100943.69
2022-11-11T05:49:47.658Z,100961.03
2022-11-11T05:52:17.422Z,100952.34
2022-11-11T05:54:47.587Z,100959.31
2022-11-11T05:57:15.650Z,100953.22
2022-11-11T05:59:43.894Z,100964.50
2022-11-11T06:02:12.472Z,100966.25
2022-11-11T06:04:40.642Z,100967.09
2022-11-11T06:07:08.888Z,100969.69
2022-11-11T06:09:37.036Z,100968.81
2022-11-11T06:12:07.252Z,100969.72
2022-11-11T06:14:35.020Z,100986.19
2022-11-11T06:17:03.083Z,100984.44
2022-11-11T06:19:31.166Z,100980.97
2022-11-11T06:21:59.269Z,100970.56
2022-11-11T06:24:27.482Z,100960.16
2022-11-11T06:26:56.467Z,100964.50
2022-11-11T06:29:26.186Z,100956.72
2022-11-11T06:31:54.524Z,100952.34
2022-11-11T06:34:23.150Z,100955.84
2022-11-11T06:36:51.588Z,100938.50
2022-11-11T06:39:19.804Z,100945.44
2022-11-11T06:41:47.945Z,100946.28
2022-11-11T06:44:16.106Z,100943.72
2022-11-11T06:46:45.884Z,100951.50
2022-11-11T06:49:14.102Z,100933.31
2022-11-11T06:51:42.221Z,100937.63
2022-11-11T06:54:10.386Z,100942.81
2022-11-11T06:56:38.515Z,100950.63
2022-11-11T06:59:06.580Z,100951.50
2022-11-11T07:01:34.665Z,100948.88
2022-11-11T07:04:04.202Z,100968.00
2022-11-11T07:06:32.411Z,100955.81
2022-11-11T07:09:00.777Z,100945.44
2022-11-11T07:11:28.795Z,100949.78
2022-11-11T07:13:57.072Z,100950.63
2022-11-11T07:16:25.179Z,100952.34
2022-11-11T07:18:53.360Z,100957.56
2022-11-11T07:21:24.068Z,100941.94
2022-11-11T07:23:52.488Z,100954.09
2022-11-11T07:26:20.662Z,100959.31
2022-11-11T07:28:50.950Z,100968.84
2022-11-11T07:31:18.995Z,100963.66
2022-11-11T07:33:47.187Z,100964.50
2022-11-11T07:36:15.498Z,100952.38
2022-11-11T07:38:45.057Z,100973.19
2022-11-11T07:41:13.229Z,100971.44
2022-11-11T07:43:41.395Z,100978.34
2022-11-11T07:46:09.528Z,100989.66
2022-11-11T07:48:40.522Z,100995.72
2022-11-11T07:51:08.697Z,101006.97
2022-11-11T07:53:36.838Z,100993.97
2022-11-11T07:56:06.958Z,100988.78
2022-11-11T07:58:34.948Z,101002.63
2022-11-11T08:01:07.594Z,101000.03
2022-11-11T08:03:49.842Z,100991.38
2022-11-11T08:06:18.797Z,100974.03
2022-11-11T08:08:47.276Z,100989.66
2022-11-11T08:11:17.457Z,100993.09
2022-11-11T08:13:44.428Z,100992.25
2022-11-11T08:16:15.133Z,100991.34
2022-11-11T08:18:43.774Z,100998.28
2022-11-11T08:21:11.998Z,101004.38
2022-11-11T08:26:30.082Z,101027.78
2022-11-11T08:28:58.792Z,101026.91
2022-11-11T08:31:27.118Z,101030.38
2022-11-11T08:33:55.289Z,101030.38
2022-11-11T08:36:25.531Z,101037.31
2022-11-11T08:38:54.566Z,101051.22
2022-11-11T08:41:23.892Z,101063.38
2022-11-11T08:43:57.153Z,101055.56
2022-11-11T08:46:25.954Z,101061.63
2022-11-11T08:48:54.779Z,101052.97
2022-11-11T08:51:22.905Z,101053.84
2022-11-11T08:53:51.234Z,101067.72
2022-11-11T08:56:19.510Z,101058.16
2022-11-11T08:58:47.587Z,101053.81
2022-11-11T09:01:17.127Z,101052.09
2022-11-11T09:03:46.322Z,101068.56
2022-11-11T09:06:15.026Z,101059.03
2022-11-11T09:08:44.702Z,101076.38
2022-11-11T09:11:18.881Z,101088.53
2022-11-11T09:13:48.718Z,101089.41
2022-11-11T09:16:18.235Z,101078.09
2022-11-11T09:18:47.618Z,101105.84
2022-11-11T09:21:15.845Z,101087.56
2022-11-11T09:23:44.132Z,101077.13
2022-11-11T09:26:12.476Z,101094.50
2022-11-11T09:28:45.917Z,101088.44
2022-11-11T09:34:08.422Z,101110.09
2022-11-11T09:36:36.588Z,101117.91
2022-11-11T09:39:05.046Z,101106.59
2022-11-11T09:41:45.855Z,101113.53
2022-11-11T09:44:28.295Z,101111.81
2022-11-11T09:47:05.909Z,101115.25
2022-11-11T09:49:44.411Z,101136.94
2022-11-11T09:52:18.793Z,101131.69
2022-11-11T09:54:52.714Z,101134.31
2022-11-11T09:57:28.814Z,101147.25
2022-11-11T10:00:04.533Z,101144.56
2022-11-11T10:02:48.357Z,101149.69
2022-11-11T10:05:20.585Z,101134.88
2022-11-11T10:07:54.083Z,101161.81
2022-11-11T10:10:31.264Z,101149.63
2022-11-11T10:13:00.101Z,101143.47
2022-11-11T10:15:35.097Z,101160.00
2022-11-11T10:18:19.144Z,101151.38
2022-11-11T10:20:54.028Z,101140.91
2022-11-11T10:23:30.562Z,101138.38
2022-11-11T10:26:03.276Z,101142.72
2022-11-11T10:28:37.147Z,101120.16
2022-11-11T10:31:12.915Z,101128.94
2022-11-11T10:33:49.462Z,101143.81
2022-11-11T10:36:20.672Z,101136.00
2022-11-11T10:38:54.616Z,101139.47
2022-11-11T10:41:28.938Z,101136.00
2022-11-11T10:43:58.279Z,101145.59
2022-11-11T10:46:30.677Z,101152.53
2022-11-11T10:49:05.155Z,101139.44
2022-11-11T10:51:40.839Z,101139.38
2022-11-11T10:54:15.445Z,101154.09
2022-11-11T10:56:47.929Z,101151.47
2022-11-11T10:59:20.609Z,101149.69
2022-11-11T11:01:59.251Z,101143.56
2022-11-11T11:04:37.123Z,101152.25
2022-11-11T11:07:07.687Z,101152.22
2022-11-11T11:09:41.499Z,101132.19
2022-11-11T11:12:16.004Z,101153.03
2022-11-11T11:14:47.376Z,101144.28
2022-11-11T11:17:21.237Z,101146.03
2022-11-11T11:20:09.248Z,101149.50
2022-11-11T11:23:00.446Z,101136.47
2022-11-11T11:25:30.774Z,101142.56
2022-11-11T11:28:11.189Z,101150.31
2022-11-11T11:31:02.023Z,101145.94
2022-11-11T11:33:51.416Z,101160.75
2022-11-11T11:36:22.771Z,101178.09
2022-11-11T11:38:51.887Z,101183.34
2022-11-11T11:41:38.722Z,101192.84
2022-11-11T11:44:26.372Z,101179.72
2022-11-11T11:47:00.117Z,101179.72
2022-11-11T11:49:44.862Z,101176.19
2022-11-11T11:52:21.023Z,101171.91
2022-11-11T11:54:57.538Z,101186.88
2022-11-11T11:57:42.141Z,101193.03
2022-11-11T12:00:19.533Z,101208.69
2022-11-11T12:03:07.523Z,101202.66
2022-11-11T12:05:41.277Z,101205.25
2022-11-11T12:08:32.129Z,101220.03
2022-11-11T12:11:07.414Z,101200.81
2022-11-11T12:13:40.987Z,101212.94
2022-11-11T12:16:22.798Z,101225.06
2022-11-11T12:19:07.243Z,101198.06
2022-11-11T12:21:44.352Z,101212.91
2022-11-11T12:24:31.145Z,101206.81
2022-11-11T12:27:12.149Z,101186.75
2022-11-11T12:29:59.011Z,101191.94
2022-11-11T12:32:52.525Z,101181.66
2022-11-11T12:35:34.225Z,101214.88
2022-11-11T12:38:22.775Z,101234.94
2022-11-11T12:41:08.625Z,101216.72
2022-11-11T12:43:48.762Z,101227.06
2022-11-11T12:46:20.510Z,101222.63
2022-11-11T12:49:02.906Z,101218.13
2022-11-11T12:51:47.721Z,101221.53
2022-11-11T12:54:28.104Z,101206.72
2022-11-11T12:57:07.791Z,101207.59
2022-11-11T12:59:56.724Z,101224.03
2022-11-11T13:02:53.810Z,101216.09
2022-11-11T13:05:29.639Z,101218.69
2022-11-11T13:08:22.494Z,101218.66
2022-11-11T13:10:57.082Z,101222.19
2022-11-11T13:13:41.506Z,101226.28
2022-11-11T13:16:10.317Z,101236.78
2022-11-11T13:18:49.712Z,101237.72
2022-11-11T13:21:22.419Z,101260.44
2022-11-11T13:23:50.649Z,101256.25
2022-11-11T13:26:29.290Z,101250.09
2022-11-11T13:29:18.182Z,101251.00
2022-11-11T13:31:48.490Z,101250.13
2022-11-11T13:34:17.444Z,101243.16
2022-11-11T13:36:52.944Z,101255.34
2022-11-11T13:39:34.999Z,101264.03
2022-11-11T13:42:07.159Z,101261.47
2022-11-11T13:44:51.735Z,101266.75
2022-11-11T13:47:25.631Z,101264.16
2022-11-11T13:49:57.601Z,101256.25
2022-11-11T13:52:29.041Z,101258.84
2022-11-11T13:55:02.243Z,101258.81
2022-11-11T13:57:36.154Z,101264.09
2022-11-11T14:00:09.497Z,101269.34
2022-11-11T14:02:37.872Z,101285.09
2022-11-11T14:05:22.903Z,101293.81
2022-11-11T14:08:00.375Z,101279.00
2022-11-11T14:10:57.184Z,101288.66
2022-11-11T14:13:42.451Z,101300.88
2022-11-11T14:16:13.769Z,101301.75
2022-11-11T14:18:45.885Z,101294.84
2022-11-11T14:21:48.130Z,101310.50
2022-11-11T14:24:26.616Z,101308.75
2022-11-11T14:27:02.282Z,101310.50
2022-11-11T14:29:36.578Z,101308.78
2022-11-11T14:32:26.693Z,101324.47
2022-11-11T14:35:20.330Z,101328.81
2022-11-11T14:38:05.820Z,101333.13
2022-11-11T14:40:35.440Z,101327.91
2022-11-11T14:43:38.321Z,101328.81
2022-11-11T14:46:16.090Z,101341.03
2022-11-11T14:49:12.544Z,101328.03
2022-11-11T14:51:51.076Z,101335.00
2022-11-11T14:54:26.538Z,101338.53
2022-11-11T14:57:03.230Z,101355.09
2022-11-11T14:59:33.583Z,101360.31
2022-11-11T15:02:02.848Z,101354.22
2022-11-11T15:04:40.417Z,101363.78
2022-11-11T15:07:24.173Z,101373.34
2022-11-11T15:10:20.284Z,101377.69
2022-11-11T15:13:25.000Z,101374.22
2022-11-11T15:16:02.201Z,101378.56
2022-11-11T15:18:53.425Z,101395.97
2022-11-11T15:21:31.728Z,101385.53
2022-11-11T15:24:15.011Z,101420.34
2022-11-11T15:26:53.946Z,101415.13
2022-11-11T15:29:44.689Z,101431.63
2022-11-11T15:32:24.135Z,101435.13
2022-11-11T15:35:03.433Z,101425.56
2022-11-11T15:37:33.495Z,101441.19
2022-11-11T15:40:01.977Z,101442.03
2022-11-11T15:42:33.628Z,101453.34
2022-11-11T15:45:05.344Z,101459.44
2022-11-11T15:47:37.596Z,101462.88
2022-11-11T15:50:17.406Z,101456.81
2022-11-11T15:52:47.464Z,101467.22
2022-11-11T15:55:23.746Z,101467.25
2022-11-11T15:57:51.859Z,101461.16
2022-11-11T16:00:30.172Z,101462.88
2022-11-11T16:02:58.833Z,101460.25
2022-11-11T16:05:28.369Z,101469.81
2022-11-11T16:07:59.874Z,101482.00
2022-11-11T16:10:30.516Z,101481.09
2022-11-11T16:13:04.938Z,101483.72
2022-11-11T16:15:41.177Z,101496.72
2022-11-11T16:18:16.923Z,101502.84
2022-11-11T16:20:50.388Z,101502.84
2022-11-11T16:23:21.969Z,101507.16
2022-11-11T16:25:53.727Z,101513.22
2022-11-11T16:28:22.952Z,101517.56
2022-11-11T16:30:51.235Z,101521.03
2022-11-11T16:33:36.074Z,101516.69
2022-11-11T16:36:11.649Z,101511.44
2022-11-11T16:38:41.211Z,101518.38
2022-11-11T16:41:25.668Z,101521.84
2022-11-11T16:43:55.056Z,101527.94
2022-11-11T18:42:25.312Z,101727.00
2022-11-11T18:44:54.114Z,101727.84
2022-11-11T18:47:23.039Z,101735.69
2022-11-11T18:49:51.440Z,101739.19
2022-11-11T18:52:20.724Z,101746.22
2022-11-11T18:54:52.381Z,101752.31
2022-11-11T18:57:20.849Z,101748.78
2022-11-11T18:59:50.500Z,101759.22
2022-11-11T19:02:18.871Z,101765.34
2022-11-11T19:04:47.366Z,101776.56
2022-11-11T19:07:16.134Z,101771.28
2022-11-11T19:09:44.513Z,101778.25
2022-11-11T19:12:12.990Z,101786.06
2022-11-11T19:14:41.419Z,101786.00
2022-11-11T19:17:25.520Z,101783.41
2022-11-11T19:19:56.331Z,101781.66
2022-11-11T19:22:24.844Z,101790.25
2022-11-11T19:24:53.818Z,101804.13
2022-11-11T19:27:23.130Z,101798.84
2022-11-11T19:29:55.109Z,101814.47
2022-11-11T19:32:25.213Z,101817.91
2022-11-11T19:35:03.320Z,101818.75
2022-11-11T19:37:31.790Z,101816.97
2022-11-11T19:40:00.609Z,101820.31
2022-11-11T19:42:29.530Z,101820.38
2022-11-11T19:44:57.858Z,101829.03
2022-11-11T19:47:28.107Z,101830.72
2022-11-11T19:49:56.804Z,101837.69
2022-11-11T19:52:29.351Z,101835.88
2022-11-11T19:55:00.578Z,101848.03
2022-11-11T19:57:37.279Z,101840.16
2022-11-11T20:00:09.143Z,101846.25
